Time;durP1;ratioP1;P1;durP2;ratioP2;P2;SDS_P1;SDS_P2;PMS_P1;PMS_P2;Temp;Humidity;BMP_temperature;BMP_pressure;BME280_temperature;BME280_humidity;BME280_pressure;Samples;Min_cycle;Max_cycle;Signal;HPM_P1;HPM_P2
2023/08/03 00:00:34;;;;;;;6.43;2.22;;;;;;;16.90;100.00;98845.66;5064369;28;20850;-76
2023/08/03 00:03:00;;;;;;;7.22;2.97;;;;;;;16.94;100.00;98846.16;5061671;28;20061;-76
2023/08/03 00:05:26;;;;;;;4.80;2.75;;;;;;;16.80;100.00;98845.94;5056055;28;20507;-75
2023/08/03 00:07:52;;;;;;;13.23;3.05;;;;;;;16.78;100.00;98860.63;5058631;28;20029;-76
2023/08/03 00:10:19;;;;;;;5.75;2.85;;;;;;;16.79;100.00;98856.91;5058155;28;20130;-77
2023/08/03 00:12:46;;;;;;;6.72;2.35;;;;;;;16.77;100.00;98857.13;5059467;28;20033;-76
2023/08/03 00:15:15;;;;;;;9.27;2.80;;;;;;;16.71;100.00;98860.53;5051475;28;20034;-77
2023/08/03 00:17:43;;;;;;;5.65;3.15;;;;;;;16.74;100.00;98864.72;5046459;28;20225;-76
2023/08/03 00:20:13;;;;;;;6.40;2.88;;;;;;;16.77;100.00;98864.34;5069045;28;20616;-76
2023/08/03 00:22:38;;;;;;;5.38;2.45;;;;;;;16.78;100.00;98860.63;5048172;28;20037;-76
2023/08/03 00:25:04;;;;;;;8.88;3.20;;;;;;;16.76;100.00;98865.34;5042742;28;20574;-76
2023/08/03 00:27:31;;;;;;;3.85;2.40;;;;;;;16.75;100.00;98866.38;5047413;28;20045;-76
2023/08/03 00:29:56;;;;;;;5.88;2.33;;;;;;;16.87;100.00;98866.75;5040238;28;20029;-76
2023/08/03 00:32:22;;;;;;;5.68;2.80;;;;;;;16.74;100.00;98865.53;5044517;28;20037;-74
2023/08/03 00:34:48;;;;;;;5.53;2.63;;;;;;;16.78;100.00;98866.03;5047972;28;20562;-76
2023/08/03 00:37:17;;;;;;;2.97;2.50;;;;;;;16.78;100.00;98872.22;5048300;28;20510;-74
2023/08/03 00:39:45;;;;;;;6.30;2.85;;;;;;;16.85;100.00;98877.69;5049329;28;20029;-77
2023/08/03 00:42:15;;;;;;;3.63;2.47;;;;;;;16.78;100.00;98877.63;5042489;28;20114;-75
2023/08/03 00:44:44;;;;;;;4.68;2.50;;;;;;;16.79;100.00;98878.44;5042663;28;20060;-77
2023/08/03 00:47:14;;;;;;;6.47;2.47;;;;;;;16.85;100.00;98876.88;5031405;28;20084;-76
2023/08/03 00:49:44;;;;;;;6.60;2.50;;;;;;;16.84;100.00;98897.56;5050190;28;20045;-77
2023/08/03 00:52:12;;;;;;;3.28;2.17;;;;;;;16.90;100.00;98896.81;5050172;28;20045;-74
2023/08/03 00:54:39;;;;;;;4.15;2.30;;;;;;;16.77;100.00;98905.56;5046477;28;20192;-77
2023/08/03 00:57:09;;;;;;;6.85;3.22;;;;;;;16.75;100.00;98904.91;5027551;28;20057;-76
2023/08/03 00:59:34;;;;;;;3.38;3.08;;;;;;;16.76;100.00;98903.03;5044593;28;20468;-76
2023/08/03 01:02:00;;;;;;;4.13;2.97;;;;;;;16.75;100.00;98914.81;5045543;28;20818;-76
2023/08/03 01:04:28;;;;;;;4.82;3.92;;;;;;;16.75;100.00;98912.13;5024079;28;20068;-75
2023/08/03 01:06:54;;;;;;;5.32;3.15;;;;;;;16.76;100.00;98928.09;5026961;28;20056;-76
2023/08/03 01:09:20;;;;;;;6.88;4.13;;;;;;;16.82;100.00;98927.38;5043144;28;20179;-76
2023/08/03 01:11:47;;;;;;;10.63;4.35;;;;;;;16.82;100.00;98932.78;5046706;28;20494;-77
2023/08/03 01:14:13;;;;;;;14.93;4.70;;;;;;;16.76;100.00;98943.41;5042190;28;20119;-76
2023/08/03 01:16:48;;;;;;;13.75;5.18;;;;;;;16.80;100.00;98942.88;5047783;28;20647;-76
2023/08/03 01:19:15;;;;;;;15.45;5.93;;;;;;;16.81;100.00;98949.09;5032227;28;20029;-76
2023/08/03 01:21:46;;;;;;;14.52;5.93;;;;;;;16.86;100.00;98946.69;5063435;28;20037;-77
2023/08/03 01:24:13;;;;;;;13.55;6.18;;;;;;;16.80;100.00;98956.31;5046504;28;20045;-76
2023/08/03 01:26:47;;;;;;;11.90;6.13;;;;;;;16.85;100.00;98949.56;5046852;28;20040;-76
2023/08/03 01:29:13;;;;;;;13.55;6.15;;;;;;;16.94;100.00;98959.22;5047866;28;20033;-77
2023/08/03 01:31:45;;;;;;;12.63;8.20;;;;;;;16.87;100.00;98969.03;5050851;28;20037;-76
2023/08/03 01:34:14;;;;;;;12.57;7.72;;;;;;;16.86;100.00;98962.81;5045542;28;20090;-75
2023/08/03 01:36:43;;;;;;;9.38;5.30;;;;;;;16.82;100.00;98966.94;5077282;27;20067;-74
2023/08/03 01:39:11;;;;;;;9.40;5.30;;;;;;;16.93;100.00;98979.94;5044833;28;20033;-75
2023/08/03 01:41:40;;;;;;;11.65;6.13;;;;;;;16.97;100.00;98989.31;5037049;28;20213;-76
2023/08/03 01:44:27;;;;;;;17.80;6.45;;;;;;;16.76;100.00;98995.41;5045375;28;20045;-75
2023/08/03 01:46:55;;;;;;;17.13;7.10;;;;;;;16.89;100.00;99012.78;5041437;28;20033;-75
2023/08/03 01:49:22;;;;;;;21.45;7.45;;;;;;;16.93;100.00;99011.41;5044152;28;20029;-75
2023/08/03 01:51:49;;;;;;;18.75;7.85;;;;;;;17.01;100.00;99022.91;5034653;28;21253;-75
2023/08/03 01:54:15;;;;;;;14.40;7.40;;;;;;;17.04;100.00;99029.81;5045893;28;20131;-75
2023/08/03 01:56:44;;;;;;;19.02;6.20;;;;;;;16.95;100.00;99015.59;5043999;28;20049;-76
2023/08/03 01:59:15;;;;;;;15.18;7.30;;;;;;;16.95;100.00;99022.81;5046943;28;20041;-76
2023/08/03 02:01:45;;;;;;;20.10;8.98;;;;;;;16.98;100.00;99023.31;5049565;28;20028;-76
2023/08/03 02:04:14;;;;;;;17.08;7.03;;;;;;;16.90;100.00;99044.06;5049552;28;20048;-75
2023/08/03 02:06:46;;;;;;;19.00;6.85;;;;;;;16.96;100.00;99040.66;5032108;28;20211;-75
2023/08/03 02:09:18;;;;;;;15.20;6.63;;;;;;;16.93;100.00;99032.97;5050068;28;20037;-75
2023/08/03 02:11:45;;;;;;;23.55;8.15;;;;;;;17.01;100.00;99038.25;5042921;28;20033;-75
2023/08/03 02:14:15;;;;;;;17.73;8.20;;;;;;;17.02;100.00;99042.63;5043035;28;20052;-75
2023/08/03 02:16:43;;;;;;;20.35;7.85;;;;;;;17.08;100.00;99053.50;5062706;28;20026;-75
2023/08/03 02:19:25;;;;;;;14.52;7.18;;;;;;;17.01;100.00;99046.31;5054496;28;20037;-75
2023/08/03 02:21:51;;;;;;;12.68;6.68;;;;;;;17.00;100.00;99052.75;5049584;28;20033;-73
2023/08/03 02:24:17;;;;;;;14.65;7.05;;;;;;;16.95;100.00;99049.75;5050540;28;20064;-75
2023/08/03 02:26:45;;;;;;;15.52;7.72;;;;;;;17.06;100.00;99054.69;5043126;28;20817;-75
2023/08/03 02:29:13;;;;;;;13.55;6.72;;;;;;;17.03;100.00;99049.69;5050523;28;20124;-75
2023/08/03 02:31:46;;;;;;;13.43;6.82;;;;;;;16.97;100.00;99053.97;5053549;28;20037;-75
2023/08/03 02:34:15;;;;;;;13.00;6.78;;;;;;;16.98;100.00;99055.63;5053899;28;20053;-75
2023/08/03 02:36:45;;;;;;;12.30;7.68;;;;;;;16.99;100.00;99061.84;5043294;28;20040;-75
2023/08/03 02:39:20;;;;;;;17.45;8.02;;;;;;;16.96;100.00;99062.19;5050211;28;20056;-75
2023/08/03 02:41:46;;;;;;;15.32;8.98;;;;;;;16.97;100.00;99074.66;5054691;28;20057;-75
2023/08/03 02:44:17;;;;;;;16.65;8.32;;;;;;;16.95;100.00;99066.75;5053759;28;20033;-75
2023/08/03 02:46:46;;;;;;;19.88;9.35;;;;;;;17.02;100.00;99069.56;5054183;28;20032;-75
2023/08/03 02:49:15;;;;;;;22.42;10.38;;;;;;;16.92;100.00;99074.34;5048940;28;20820;-75
2023/08/03 02:51:45;;;;;;;17.60;9.90;;;;;;;16.97;100.00;99072.81;5066002;28;20119;-75
2023/08/03 02:54:17;;;;;;;19.70;10.63;;;;;;;17.03;100.00;99076.63;5050058;28;20044;-75
2023/08/03 02:56:49;;;;;;;19.08;10.52;;;;;;;17.05;100.00;99082.66;5048303;28;20040;-74
2023/08/03 02:59:18;;;;;;;19.45;11.57;;;;;;;17.06;100.00;99073.53;5045437;28;20079;-74
2023/08/03 03:01:44;;;;;;;22.92;10.52;;;;;;;17.00;100.00;99069.72;5049190;28;20029;-75
2023/08/03 03:04:17;;;;;;;20.92;11.55;;;;;;;16.97;100.00;99080.88;5046482;28;20041;-75
2023/08/03 03:06:45;;;;;;;24.05;12.40;;;;;;;17.05;100.00;99088.03;5048903;28;20064;-74
2023/08/03 03:09:15;;;;;;;21.55;13.75;;;;;;;17.00;100.00;99085.06;5049787;28;20036;-75
2023/08/03 03:11:44;;;;;;;25.15;15.05;;;;;;;17.03;100.00;99084.69;5040726;28;20034;-75
2023/08/03 03:14:15;;;;;;;28.20;16.75;;;;;;;17.05;100.00;99090.72;5029002;28;20045;-75
2023/08/03 03:16:44;;;;;;;26.88;15.80;;;;;;;17.03;100.00;99096.31;5045296;28;20048;-74
2023/08/03 03:19:13;;;;;;;20.55;14.35;;;;;;;16.89;100.00;99123.19;5050545;28;20180;-74
2023/08/03 03:21:48;;;;;;;25.08;15.63;;;;;;;16.93;100.00;99105.66;5044483;28;20091;-75
2023/08/03 03:24:13;;;;;;;29.17;16.02;;;;;;;16.98;100.00;99114.88;5042660;28;20103;-74
2023/08/03 03:26:48;;;;;;;29.25;13.85;;;;;;;16.91;100.00;99110.38;5075918;28;20034;-75
2023/08/03 03:29:17;;;;;;;23.17;14.23;;;;;;;16.92;100.00;99126.38;5044614;28;20128;-75
2023/08/03 03:31:50;;;;;;;22.13;12.82;;;;;;;16.93;100.00;99113.72;5034245;28;20064;-75
2023/08/03 03:34:16;;;;;;;17.67;12.57;;;;;;;16.99;100.00;99107.63;5042410;28;20045;-74
2023/08/03 03:36:46;;;;;;;24.15;13.48;;;;;;;16.99;100.00;99119.22;5045490;28;20033;-74
2023/08/03 03:39:16;;;;;;;20.48;11.68;;;;;;;16.92;100.00;99114.72;5042761;28;20585;-75
2023/08/03 03:41:45;;;;;;;22.35;11.15;;;;;;;16.91;100.00;99110.38;5041706;28;20028;-75
2023/08/03 03:44:16;;;;;;;23.50;11.68;;;;;;;16.87;100.00;99114.44;5045713;28;20036;-75
2023/08/03 03:46:45;;;;;;;19.45;9.30;;;;;;;16.82;100.00;99104.22;5045626;28;20044;-74
2023/08/03 03:49:18;;;;;;;20.65;10.68;;;;;;;16.83;100.00;99093.28;5043221;28;20065;-74
2023/08/03 03:51:45;;;;;;;21.77;9.52;;;;;;;16.69;100.00;99107.47;5046719;28;20138;-74
2023/08/03 03:54:18;;;;;;;24.27;8.88;;;;;;;16.72;100.00;99117.09;5046708;28;20041;-75
2023/08/03 03:56:44;;;;;;;14.90;7.13;;;;;;;16.64;100.00;99117.94;5046873;28;20122;-74
2023/08/03 03:59:09;;;;;;;7.85;4.03;;;;;;;16.64;100.00;99117.94;5047309;28;20040;-75
2023/08/03 04:01:45;;;;;;;8.00;3.00;;;;;;;16.72;100.00;99122.47;5074798;27;20107;-75
2023/08/03 04:04:13;;;;;;;7.25;2.67;;;;;;;16.69;100.00;99112.03;5021740;28;20049;-75
2023/08/03 04:06:45;;;;;;;7.00;3.10;;;;;;;16.66;100.00;99117.75;5043387;28;20598;-74
2023/08/03 04:09:19;;;;;;;12.20;3.15;;;;;;;16.68;100.00;99111.19;5050018;28;20067;-74
2023/08/03 04:11:45;;;;;;;3.88;2.58;;;;;;;16.76;100.00;99116.53;5048662;28;20033;-76
2023/08/03 04:14:17;;;;;;;3.78;2.83;;;;;;;16.78;100.00;99127.13;5048442;28;20045;-75
2023/08/03 04:16:48;;;;;;;8.65;5.55;;;;;;;16.66;100.00;99117.75;5057540;28;20077;-75
2023/08/03 04:19:20;;;;;;;9.55;5.60;;;;;;;16.71;100.00;99124.31;5047697;28;20029;-77
2023/08/03 04:21:49;;;;;;;12.27;6.70;;;;;;;16.74;100.00;99120.44;5047039;28;20021;-76
2023/08/03 04:24:15;;;;;;;12.65;7.20;;;;;;;16.70;100.00;99119.91;5049147;28;20124;-76
2023/08/03 04:26:45;;;;;;;17.38;7.78;;;;;;;16.69;100.00;99125.47;5046068;28;20151;-77
2023/08/03 04:29:17;;;;;;;12.65;7.07;;;;;;;16.64;100.00;99127.88;5044535;28;20032;-77
2023/08/03 04:31:45;;;;;;;11.88;7.00;;;;;;;16.71;100.00;99126.13;5050685;28;20076;-76
2023/08/03 04:34:13;;;;;;;14.50;7.65;;;;;;;16.69;100.00;99129.00;5052934;28;20045;-76
2023/08/03 04:36:47;;;;;;;15.25;7.25;;;;;;;16.75;100.00;99144.47;5050909;28;20039;-76
2023/08/03 04:39:19;;;;;;;14.63;6.85;;;;;;;16.76;100.00;99142.63;5083355;28;20049;-77
2023/08/03 04:41:45;;;;;;;15.65;7.35;;;;;;;16.75;100.00;99146.31;5044298;28;20060;-76
2023/08/03 04:44:17;;;;;;;12.15;8.40;;;;;;;16.67;100.00;99139.13;5067416;28;20017;-76
2023/08/03 04:46:46;;;;;;;14.95;6.75;;;;;;;16.69;100.00;99153.22;5058276;28;20037;-77
2023/08/03 04:49:19;;;;;;;14.75;6.35;;;;;;;16.72;100.00;99161.00;5053788;28;20037;-76
2023/08/03 04:51:50;;;;;;;12.05;6.07;;;;;;;16.72;100.00;99161.00;5063310;28;20033;-76
2023/08/03 04:54:20;;;;;;;14.77;5.57;;;;;;;16.77;100.00;99176.63;5092985;27;20039;-76
2023/08/03 04:56:52;;;;;;;13.00;5.55;;;;;;;16.69;100.00;99180.16;5069679;28;20033;-76
2023/08/03 04:59:24;;;;;;;14.70;5.85;;;;;;;16.76;100.00;99183.81;5064084;28;20080;-77
2023/08/03 05:01:50;;;;;;;17.90;5.78;;;;;;;16.79;100.00;99188.88;5090174;27;20098;-77
2023/08/03 05:04:30;;;;;;;10.38;5.40;;;;;;;16.88;100.00;99196.91;5076522;28;20586;-71
2023/08/03 05:06:57;;;;;;;13.27;5.75;;;;;;;16.90;100.00;99195.69;5062513;28;20039;-71
2023/08/03 05:09:22;;;;;;;12.48;5.18;;;;;;;16.88;100.00;99210.38;5061546;28;20605;-71
2023/08/03 05:11:48;;;;;;;14.45;5.93;;;;;;;16.88;100.00;99208.50;5063952;28;20040;-69
2023/08/03 05:14:14;;;;;;;14.93;5.68;;;;;;;16.88;100.00;99204.97;5062701;28;20041;-69
2023/08/03 05:16:39;;;;;;;13.85;5.25;;;;;;;16.93;100.00;99205.28;5068093;28;20034;-68
2023/08/03 05:19:05;;;;;;;17.95;5.55;;;;;;;16.91;100.00;99200.06;5063947;28;20831;-70
2023/08/03 05:21:30;;;;;;;15.48;6.25;;;;;;;17.02;100.00;99217.69;5066616;28;20037;-70
2023/08/03 05:23:56;;;;;;;11.70;4.45;;;;;;;17.00;100.00;99219.69;5058729;28;20899;-69
2023/08/03 05:26:21;;;;;;;13.25;4.68;;;;;;;16.98;100.00;99216.34;5065737;28;20048;-69
2023/08/03 05:28:47;;;;;;;18.40;5.55;;;;;;;16.98;100.00;99213.66;5068239;28;20045;-69
2023/08/03 05:31:12;;;;;;;14.38;4.97;;;;;;;16.98;100.00;99216.34;5067572;28;20121;-71
2023/08/03 05:33:38;;;;;;;15.63;4.30;;;;;;;17.03;100.00;99216.66;5067660;28;20032;-71
2023/08/03 05:36:04;;;;;;;15.38;5.03;;;;;;;17.07;100.00;99213.44;5068464;28;20087;-71
2023/08/03 05:38:30;;;;;;;12.98;5.28;;;;;;;16.97;100.00;99220.91;5064899;28;20067;-71
2023/08/03 05:40:55;;;;;;;10.70;4.63;;;;;;;16.95;100.00;99228.31;5061091;28;20049;-71
2023/08/03 05:43:24;;;;;;;9.02;4.35;;;;;;;17.00;100.00;99241.25;5064118;28;20041;-70
2023/08/03 05:46:00;;;;;;;12.50;3.95;;;;;;;16.85;100.00;99251.09;5041815;28;20116;-71
2023/08/03 05:48:30;;;;;;;14.77;3.75;;;;;;;16.78;100.00;99257.19;5069767;28;20041;-69
2023/08/03 05:50:59;;;;;;;9.25;3.72;;;;;;;16.88;100.00;99267.75;5077318;28;20183;-70
2023/08/03 05:53:25;;;;;;;9.27;3.90;;;;;;;16.92;100.00;99262.81;5067302;28;20033;-69
2023/08/03 05:55:50;;;;;;;8.30;3.92;;;;;;;16.78;100.00;99262.56;5064184;28;20047;-68
2023/08/03 05:58:17;;;;;;;9.85;3.60;;;;;;;16.87;100.00;99274.16;5061795;28;20057;-69
2023/08/03 06:00:47;;;;;;;16.20;3.67;;;;;;;16.91;100.00;99270.06;5075697;28;20054;-69
2023/08/03 06:03:14;;;;;;;12.73;4.55;;;;;;;16.89;100.00;99265.88;5065242;28;20044;-69
2023/08/03 06:05:43;;;;;;;15.40;4.10;;;;;;;16.92;100.00;99271.78;5065822;27;20057;-69
2023/08/03 06:08:16;;;;;;;14.75;4.00;;;;;;;16.94;100.00;99279.66;5068476;28;20123;-69
2023/08/03 06:10:42;;;;;;;7.32;3.92;;;;;;;17.08;100.00;99281.59;5065329;28;20033;-68
2023/08/03 06:13:11;;;;;;;15.90;3.88;;;;;;;17.09;100.00;99275.19;5063176;28;20037;-69
2023/08/03 06:15:37;;;;;;;12.18;3.42;;;;;;;16.96;100.00;99278.44;5053894;28;20087;-69
2023/08/03 06:18:07;;;;;;;14.48;4.20;;;;;;;17.00;100.00;99282.47;5067437;28;20119;-69
2023/08/03 06:20:34;;;;;;;12.02;4.18;;;;;;;16.94;100.00;99288.56;5051068;28;20064;-70
2023/08/03 06:23:00;;;;;;;12.60;4.30;;;;;;;17.01;100.00;99291.38;5050431;28;20044;-71
2023/08/03 06:25:27;;;;;;;9.93;3.30;;;;;;;17.19;100.00;99291.13;5049665;28;20036;-71
2023/08/03 06:27:53;;;;;;;11.85;4.25;;;;;;;17.22;100.00;99297.00;5032816;28;20257;-71
2023/08/03 06:30:18;;;;;;;8.93;3.72;;;;;;;17.22;100.00;99298.84;5049895;28;20458;-71
2023/08/03 06:32:44;;;;;;;15.88;3.58;;;;;;;17.23;100.00;99304.06;5043016;28;20037;-71
2023/08/03 06:35:34;;;;;;;14.45;3.50;;;;;;;17.28;100.00;99300.84;5049852;28;20029;-70
2023/08/03 06:38:01;;;;;;;13.52;3.50;;;;;;;17.25;100.00;99307.41;5050611;28;20037;-70
2023/08/03 06:40:27;;;;;;;9.60;3.70;;;;;;;17.29;100.00;99303.34;5045305;28;20041;-70
2023/08/03 06:42:53;;;;;;;14.93;3.20;;;;;;;17.23;100.00;99306.75;5044909;28;20041;-69
2023/08/03 06:45:19;;;;;;;17.67;4.55;;;;;;;17.31;100.00;99322.88;5051065;28;20061;-69
2023/08/03 06:47:44;;;;;;;13.07;4.10;;;;;;;17.19;100.00;99315.38;5043045;28;20044;-69
2023/08/03 06:50:10;;;;;;;15.02;3.30;;;;;;;17.27;100.00;99324.25;5047874;28;20037;-69
2023/08/03 06:52:36;;;;;;;11.55;3.70;;;;;;;17.38;100.00;99322.16;5050767;28;20060;-69
2023/08/03 06:55:02;;;;;;;16.67;3.60;;;;;;;17.38;100.00;99316.78;5055114;28;20029;-69
2023/08/03 06:57:27;;;;;;;14.90;3.95;;;;;;;17.51;100.00;99317.00;5047849;28;20041;-69
2023/08/03 06:59:55;;;;;;;17.92;3.72;;;;;;;17.46;100.00;99325.63;5046732;28;20033;-69
2023/08/03 07:02:21;;;;;;;10.73;3.85;;;;;;;17.64;100.00;99329.91;5050112;28;20123;-69
2023/08/03 07:04:47;;;;;;;13.95;3.50;;;;;;;17.53;100.00;99340.09;5049450;28;20037;-70
2023/08/03 07:07:14;;;;;;;11.88;3.78;;;;;;;17.47;100.00;99327.34;5050278;28;20061;-69
2023/08/03 07:09:40;;;;;;;13.57;3.55;;;;;;;17.77;100.00;99339.09;5044348;28;20129;-70
2023/08/03 07:12:09;;;;;;;12.85;3.22;;;;;;;17.67;100.00;99327.69;5054344;28;20909;-70
2023/08/03 07:14:35;;;;;;;14.07;3.40;;;;;;;17.80;100.00;99337.91;5049471;28;20040;-69
2023/08/03 07:17:00;;;;;;;10.02;3.63;;;;;;;18.04;100.00;99345.78;5050474;28;20068;-70
2023/08/03 07:19:26;;;;;;;17.75;3.47;;;;;;;18.06;100.00;99356.38;5050314;28;20118;-70
2023/08/03 07:21:51;;;;;;;12.38;3.33;;;;;;;18.37;100.00;99340.06;5049424;28;20111;-70
2023/08/03 07:24:17;;;;;;;15.13;3.63;;;;;;;18.49;100.00;99344.00;5057474;28;20048;-69
2023/08/03 07:26:43;;;;;;;8.93;3.30;;;;;;;18.56;100.00;99339.53;5048775;28;20033;-70
2023/08/03 07:29:08;;;;;;;13.65;3.28;;;;;;;18.35;100.00;99340.25;5045441;28;20029;-70
2023/08/03 07:31:34;;;;;;;9.48;2.60;;;;;;;18.45;100.00;99339.16;5050961;28;20580;-70
2023/08/03 07:33:59;;;;;;;10.75;2.63;;;;;;;18.40;100.00;99355.06;5049893;28;20033;-69
2023/08/03 07:36:25;;;;;;;13.98;3.55;;;;;;;18.12;100.00;99352.94;5049980;28;20041;-70
2023/08/03 07:38:52;;;;;;;10.88;3.15;;;;;;;17.93;100.00;99359.72;5045654;28;20841;-70
2023/08/03 07:41:18;;;;;;;14.02;3.70;;;;;;;17.86;100.00;99364.13;5046778;28;20220;-70
2023/08/03 07:43:44;;;;;;;16.98;3.70;;;;;;;17.97;100.00;99377.22;5048016;28;20041;-70
2023/08/03 07:46:09;;;;;;;9.93;2.95;;;;;;;17.83;100.00;99376.13;5050641;28;20040;-70
2023/08/03 07:48:35;;;;;;;11.43;2.90;;;;;;;17.75;100.00;99384.28;5050423;28;20443;-70
2023/08/03 07:51:13;;;;;;;12.40;3.22;;;;;;;17.79;100.00;99388.28;5048518;28;20043;-70
2023/08/03 07:53:39;;;;;;;10.43;2.92;;;;;;;17.79;100.00;99387.47;5049571;28;20048;-70
2023/08/03 07:56:16;;;;;;;9.30;3.05;;;;;;;17.81;100.00;99391.63;5078715;27;20040;-69
2023/08/03 07:58:43;;;;;;;6.00;2.95;;;;;;;17.83;100.00;99397.72;5047656;28;20127;-69
2023/08/03 08:01:08;;;;;;;10.48;2.83;;;;;;;17.94;100.00;99407.22;5044922;28;20025;-70
2023/08/03 08:03:38;;;;;;;11.73;3.60;;;;;;;17.81;100.00;99407.81;5049341;28;20045;-68
2023/08/03 08:06:05;;;;;;;5.90;2.63;;;;;;;17.89;100.00;99406.09;5049936;28;20029;-69
2023/08/03 08:08:32;;;;;;;10.30;2.67;;;;;;;18.08;100.00;99411.00;5048305;28;20043;-70
2023/08/03 08:10:57;;;;;;;14.77;3.00;;;;;;;18.16;100.00;99405.53;5064089;28;20152;-69
2023/08/03 08:13:23;;;;;;;9.35;2.67;;;;;;;18.08;100.00;99414.53;5048848;28;20029;-70
2023/08/03 08:15:48;;;;;;;9.75;2.67;;;;;;;18.21;100.00;99415.78;5049883;28;20029;-70
2023/08/03 08:18:14;;;;;;;12.20;3.13;;;;;;;18.21;100.00;99413.09;5049106;28;20157;-70
2023/08/03 08:20:44;;;;;;;9.80;3.05;;;;;;;18.09;100.00;99421.63;5049364;28;20749;-70
2023/08/03 08:23:10;;;;;;;10.15;3.22;;;;;;;18.01;100.00;99421.66;5049024;28;20122;-69
2023/08/03 08:25:39;;;;;;;7.80;2.65;;;;;;;18.13;100.00;99426.66;5081377;27;20975;-70
2023/08/03 08:28:05;;;;;;;9.93;3.58;;;;;;;18.13;100.00;99426.66;5045672;28;20040;-70
2023/08/03 08:30:30;;;;;;;7.13;3.40;;;;;;;18.05;100.00;99425.69;5047655;28;20072;-70
2023/08/03 08:32:56;;;;;;;9.05;3.17;;;;;;;18.10;100.00;99433.25;5048052;28;20033;-70
2023/08/03 08:35:21;;;;;;;7.95;2.67;;;;;;;18.09;100.00;99428.88;5055851;28;20041;-70
2023/08/03 08:37:47;;;;;;;11.23;3.33;;;;;;;18.03;100.00;99435.00;5047461;28;20110;-70
2023/08/03 08:40:16;;;;;;;7.75;2.85;;;;;;;17.86;100.00;99439.66;5046472;28;20045;-69
2023/08/03 08:42:42;;;;;;;7.90;3.13;;;;;;;17.65;100.00;99447.50;5044000;28;20047;-69
2023/08/03 08:45:08;;;;;;;10.13;3.40;;;;;;;17.74;100.00;99449.16;5064477;28;20029;-70
2023/08/03 08:47:33;;;;;;;11.02;4.05;;;;;;;17.90;100.00;99457.16;5041108;28;20037;-70
2023/08/03 08:49:59;;;;;;;11.05;3.80;;;;;;;17.95;100.00;99456.63;5045990;28;20033;-69
2023/08/03 08:52:26;;;;;;;11.73;3.67;;;;;;;18.03;100.00;99456.56;5048919;28;20037;-69
2023/08/03 08:55:10;;;;;;;10.93;3.95;;;;;;;17.99;100.00;99452.56;5041594;28;20076;-69
2023/08/03 08:57:36;;;;;;;7.63;3.47;;;;;;;18.06;100.00;99470.53;5043264;28;20966;-69
2023/08/03 09:00:05;;;;;;;14.65;3.90;;;;;;;18.03;100.00;99468.19;5046255;28;20033;-69
2023/08/03 09:02:31;;;;;;;11.77;4.60;;;;;;;17.89;100.00;99473.53;5047552;28;21017;-69
2023/08/03 09:04:56;;;;;;;15.25;4.22;;;;;;;18.07;100.00;99487.53;5047048;28;20033;-69
2023/08/03 09:07:22;;;;;;;12.40;4.03;;;;;;;18.12;100.00;99498.66;5048594;28;20901;-69
2023/08/03 09:09:48;;;;;;;10.18;3.90;;;;;;;18.09;100.00;99502.56;5042287;28;20039;-69
2023/08/03 09:12:27;;;;;;;15.63;6.55;;;;;;;18.19;100.00;99496.94;5047098;28;20135;-69
2023/08/03 09:14:55;;;;;;;13.25;4.20;;;;;;;18.23;100.00;99502.81;5039172;28;20034;-69
2023/08/03 09:17:24;;;;;;;11.73;4.68;;;;;;;18.15;100.00;99517.19;5045250;28;20241;-70
2023/08/03 09:19:51;;;;;;;13.95;5.10;;;;;;;18.24;100.00;99524.22;5045858;28;20115;-69
2023/08/03 09:22:25;;;;;;;11.93;4.30;;;;;;;18.25;100.00;99536.69;5043067;28;20041;-69
2023/08/03 09:25:09;;;;;;;14.57;4.93;;;;;;;18.60;100.00;99545.19;5043930;28;20041;-69
2023/08/03 09:27:36;;;;;;;14.15;3.95;;;;;;;18.95;100.00;99543.75;5042395;28;20587;-69
2023/08/03 09:30:04;;;;;;;8.77;4.75;;;;;;;19.65;100.00;99540.66;5046813;28;20029;-69
2023/08/03 09:32:35;;;;;;;11.43;5.03;;;;;;;20.40;100.00;99539.47;5048778;28;20068;-69
2023/08/03 09:35:02;;;;;;;14.65;5.05;;;;;;;20.48;100.00;99535.81;5043124;28;20076;-69
2023/08/03 09:37:37;;;;;;;9.80;4.97;;;;;;;20.14;100.00;99536.47;5044040;28;20048;-69
2023/08/03 09:40:05;;;;;;;8.38;4.13;;;;;;;20.36;100.00;99540.88;5042536;28;20052;-69
2023/08/03 09:42:32;;;;;;;10.32;4.05;;;;;;;20.53;100.00;99546.06;5044897;28;20037;-69
2023/08/03 09:45:05;;;;;;;9.93;3.80;;;;;;;20.51;100.00;99548.97;5043647;28;20046;-69
2023/08/03 09:47:31;;;;;;;7.78;4.57;;;;;;;20.82;100.00;99556.75;5045628;28;20038;-69
2023/08/03 09:49:57;;;;;;;8.90;4.10;;;;;;;20.76;100.00;99556.72;5070478;28;20032;-69
2023/08/03 09:52:26;;;;;;;8.98;3.70;;;;;;;21.17;100.00;99551.41;5055488;28;20049;-69
2023/08/03 09:55:13;;;;;;;7.53;3.88;;;;;;;21.57;100.00;99562.53;5067860;28;20033;-69
2023/08/03 09:58:06;;;;;;;7.30;4.25;;;;;;;21.84;100.00;99564.38;5062576;28;20119;-70
2023/08/03 10:00:33;;;;;;;10.52;4.53;;;;;;;21.68;100.00;99567.41;5057620;28;20055;-69
2023/08/03 10:03:15;;;;;;;7.68;4.65;;;;;;;21.71;100.00;99572.44;5052910;28;20045;-69
2023/08/03 10:05:50;;;;;;;10.75;5.28;;;;;;;21.98;100.00;99576.94;5050080;28;20034;-70
2023/08/03 10:08:55;;;;;;;11.98;5.10;;;;;;;22.00;100.00;99576.75;5062127;28;20087;-70
2023/08/03 10:11:22;;;;;;;9.27;4.07;;;;;;;22.18;100.00;99578.94;5075869;28;20037;-69
2023/08/03 10:13:50;;;;;;;10.15;4.13;;;;;;;22.22;100.00;99591.06;5077728;28;20045;-69
2023/08/03 10:16:17;;;;;;;8.77;4.18;;;;;;;22.26;100.00;99586.91;5079833;28;20140;-69
2023/08/03 10:18:45;;;;;;;9.93;3.95;;;;;;;22.20;100.00;99595.88;5084720;28;20044;-69
2023/08/03 10:21:11;;;;;;;8.80;3.72;;;;;;;22.29;100.00;99591.94;5082007;28;20037;-70
2023/08/03 10:23:39;;;;;;;10.18;3.90;;;;;;;22.11;100.00;99600.66;5085435;28;20060;-69
2023/08/03 10:26:09;;;;;;;10.82;4.38;;;;;;;21.67;100.00;99607.28;5084710;28;20048;-69
2023/08/03 10:28:40;;;;;;;9.13;4.13;;;;;;;22.00;100.00;99613.94;5085911;28;20106;-69
2023/08/03 10:31:05;;;;;;;12.50;4.80;;;;;;;22.24;100.00;99610.75;5069403;28;20044;-69
2023/08/03 10:33:51;;;;;;;8.25;3.90;;;;;;;22.10;100.00;99617.13;5082424;28;20088;-69
2023/08/03 10:39:18;;;;;;;7.72;3.88;;;;;;;21.66;100.00;99642.75;5084845;28;20090;-70
2023/08/03 10:41:50;;;;;;;8.45;3.45;;;;;;;21.54;100.00;99644.34;5081066;28;20044;-70
2023/08/03 10:44:20;;;;;;;10.32;4.13;;;;;;;21.82;100.00;99639.72;5081409;28;20041;-69
2023/08/03 10:46:50;;;;;;;12.65;5.40;;;;;;;22.40;100.00;99650.28;5064803;28;20045;-71
2023/08/03 10:49:29;;;;;;;11.93;5.22;;;;;;;22.74;100.00;99652.03;5064475;28;20041;-70
2023/08/03 10:52:15;;;;;;;6.90;3.40;;;;;;;23.00;100.00;99654.03;5065594;28;20032;-70
2023/08/03 10:54:41;;;;;;;18.88;3.30;;;;;;;23.10;100.00;99643.56;5047683;28;20041;-69
2023/08/03 10:57:13;;;;;;;5.93;2.90;;;;;;;23.45;100.00;99659.69;5063027;28;20147;-70
2023/08/03 10:59:47;;;;;;;5.13;2.97;;;;;;;23.11;100.00;99656.13;5071132;28;20086;-70
2023/08/03 11:02:14;;;;;;;10.55;3.42;;;;;;;22.41;100.00;99676.41;5057808;28;20048;-71
2023/08/03 11:04:41;;;;;;;9.63;3.70;;;;;;;21.41;100.00;99691.19;5065226;28;20043;-70
2023/08/03 11:07:10;;;;;;;8.25;3.60;;;;;;;20.95;100.00;99692.41;5049398;28;20140;-70
2023/08/03 11:09:36;;;;;;;8.35;3.40;;;;;;;20.98;100.00;99703.88;5040125;28;20029;-70
2023/08/03 11:12:06;;;;;;;11.73;4.90;;;;;;;21.17;100.00;99708.66;5049302;28;20041;-70
2023/08/03 11:14:32;;;;;;;12.23;4.93;;;;;;;21.23;100.00;99720.59;5048788;28;20148;-70
2023/08/03 11:16:57;;;;;;;9.05;3.60;;;;;;;21.00;100.00;99720.81;5046162;28;20034;-70
2023/08/03 11:19:23;;;;;;;8.60;3.63;;;;;;;20.77;100.00;99727.19;5043922;28;20094;-70
2023/08/03 11:21:49;;;;;;;7.63;3.33;;;;;;;20.87;100.00;99733.16;5049381;28;20079;-71
2023/08/03 11:24:14;;;;;;;8.18;2.97;;;;;;;20.87;100.00;99729.59;5040672;28;20041;-70
2023/08/03 11:26:42;;;;;;;9.55;2.75;;;;;;;20.71;100.00;99736.09;5052872;28;20033;-70
2023/08/03 11:29:08;;;;;;;8.23;2.80;;;;;;;20.78;100.00;99737.00;5050941;28;20067;-70